This is the latest recevied weather packets stored in our database for station/object F5ZQC-13. If no packets are shown the sender has not sent any weather packets the latest 1 day(s).
| Time | Temp. | Humidity | Pressure | Rain* | Wind** | Luminosity | Snow |
|---|---|---|---|---|---|---|---|
| 1777955841 | 11.67° C | 58% | 1010 hPa | 0 mm | 1.34 m/s, 292° | - | - |
| 1777955718 | 11.67° C | 58% | 1009.6 hPa | 0 mm | 1.34 m/s, 281° | - | - |
| 1777955474 | 11.67° C | 53% | 1010 hPa | 0 mm | 1.34 m/s, 225° | - | - |
| 1777955104 | 11.67° C | 58% | 1009.9 hPa | 0 mm | 0.45 m/s, 326° | - | - |
| 1777954981 | 11.67° C | 59% | 1010 hPa | 0 mm | 2.68 m/s, 281° | - | - |
| 1777954736 | 11.67° C | 59% | 1009.6 hPa | 0 mm | 0.89 m/s, 348° | - | - |
| 1777954616 | 11.67° C | 59% | 1010.1 hPa | 0 mm | 1.79 m/s, 0° | - | - |
| 1777954249 | 11.67° C | 57% | 1009.7 hPa | 0 mm | 1.34 m/s, 315° | - | - |
| 1777954127 | 11.67° C | 59% | 1009.4 hPa | 0 mm | 1.79 m/s, 292° | - | - |
| 1777954008 | 11.67° C | 59% | 1009.9 hPa | 0 mm | 1.79 m/s, 292° | - | - |
| 1777953760 | 11.67° C | 56% | 1010 hPa | 0 mm | 0.89 m/s, 326° | - | - |
| 1777953514 | 11.67° C | 58% | 1009.9 hPa | 0 mm | 0.89 m/s, 337° | - | - |
| 1777953393 | 11.67° C | 58% | 1009.6 hPa | 0 mm | 0.45 m/s, 270° | - | - |
| 1777953270 | 11.67° C | 59% | 1010 hPa | 0 mm | 0 m/s | - | - |
| 1777953026 | 11.67° C | 60% | 1010 hPa | 0 mm | 0.45 m/s, 225° | - | - |
| 1777952904 | 11.67° C | 64% | 1009.9 hPa | 0 mm | 0 m/s | - | - |
| 1777952415 | 11.67° C | 59% | 1009.7 hPa | 0 mm | 0 m/s | - | - |
| 1777952363 | 11.67° C | 59% | 1009.5 hPa | 0 mm | 0.89 m/s, 292° | - | - |
| 1777952292 | 11.67° C | 59% | 1009.5 hPa | 0 mm | 0.89 m/s, 292° | - | - |
| 1777952228 | 11.67° C | 57% | 1009.6 hPa | 0 mm | 0.89 m/s, 315° | - | - |
| 1777952180 | 11.67° C | 57% | 1009.6 hPa | 0 mm | 0.89 m/s, 315° | - | - |
| 1777952047 | 11.67° C | 58% | 1009.9 hPa | 0 mm | 1.34 m/s, 315° | - | - |
| 1777951803 | 11.67° C | 59% | 1009.6 hPa | 0 mm | 0.45 m/s, 292° | - | - |
| 1777951687 | 11.67° C | 56% | 1009.8 hPa | 0 mm | 0.89 m/s, 292° | - | - |
| 1777951559 | 11.67° C | 59% | 1009.8 hPa | 0 mm | 1.34 m/s, 270° | - | - |
* Rain since midnight (hover to see other rain measurements)
** Current wind speed in m/s (hover to see current wind gust speed)